Time;durP1;ratioP1;P1;durP2;ratioP2;P2;SDS_P1;SDS_P2;PMS_P1;PMS_P2;Temp;Humidity;BMP_temperature;BMP_pressure;BME280_temperature;BME280_humidity;BME280_pressure;Samples;Min_cycle;Max_cycle;Signal;HPM_P1;HPM_P2
2022/07/14 00:00:15;;;;;;;7.65;4.78;;;25.50;99.90;;;;;;1923937;73;21166;-80
2022/07/14 00:02:46;;;;;;;6.80;3.47;;;25.50;99.90;;;;;;1898320;75;21201;-79
2022/07/14 00:05:17;;;;;;;4.00;2.00;;;25.50;99.90;;;;;;1892757;74;21084;-81
2022/07/14 00:07:49;;;;;;;3.90;1.92;;;25.50;99.90;;;;;;1915448;74;21129;-80
2022/07/14 00:10:20;;;;;;;3.98;1.70;;;25.50;99.90;;;;;;1922774;73;21126;-79
2022/07/14 00:12:51;;;;;;;3.58;2.08;;;25.60;99.90;;;;;;1915522;74;21226;-78
2022/07/14 00:15:22;;;;;;;2.70;1.75;;;25.60;99.90;;;;;;1850952;77;21143;-79
2022/07/14 00:17:55;;;;;;;4.25;2.02;;;25.60;99.90;;;;;;1894781;74;21187;-80
2022/07/14 00:20:28;;;;;;;4.97;2.87;;;25.70;99.90;;;;;;1901087;75;21186;-80
2022/07/14 00:22:58;;;;;;;4.20;2.30;;;25.70;99.90;;;;;;1920582;74;21068;-80
2022/07/14 00:25:30;;;;;;;3.90;2.20;;;25.70;99.90;;;;;;1889629;74;21194;-78
2022/07/14 00:28:00;;;;;;;3.65;2.65;;;25.70;99.90;;;;;;1845856;76;21147;-78
2022/07/14 00:30:32;;;;;;;6.00;3.10;;;25.70;99.90;;;;;;1918034;73;21234;-79
2022/07/14 00:33:03;;;;;;;3.87;2.42;;;25.70;99.90;;;;;;1879798;76;21123;-79
2022/07/14 00:35:34;;;;;;;4.47;2.52;;;25.70;99.90;;;;;;1902987;73;21138;-81
2022/07/14 00:38:07;;;;;;;4.90;2.52;;;25.70;99.90;;;;;;1872026;73;21208;-80
2022/07/14 00:40:38;;;;;;;7.87;2.90;;;25.70;99.90;;;;;;1918108;74;21076;-79
2022/07/14 00:43:09;;;;;;;6.50;2.60;;;25.80;99.90;;;;;;1886105;74;21159;-78
2022/07/14 00:45:42;;;;;;;4.20;2.58;;;25.80;99.90;;;;;;1902837;73;21099;-79
2022/07/14 00:48:20;;;;;;;5.00;2.72;;;25.80;99.90;;;;;;1878842;74;21158;-79
2022/07/14 00:50:49;;;;;;;3.40;2.40;;;25.80;99.90;;;;;;1918041;74;21562;-79
2022/07/14 00:53:24;;;;;;;3.70;2.95;;;25.80;99.90;;;;;;1911846;74;21168;-79
2022/07/14 00:55:55;;;;;;;5.30;3.35;;;25.80;99.90;;;;;;1904993;74;21151;-78
2022/07/14 00:58:26;;;;;;;5.03;3.22;;;25.80;99.90;;;;;;1880440;74;21595;-78
2022/07/14 01:00:57;;;;;;;5.35;3.80;;;25.80;99.90;;;;;;1906569;74;21145;-78
2022/07/14 01:03:28;;;;;;;5.80;4.05;;;25.80;99.90;;;;;;1895045;74;21194;-78
2022/07/14 01:05:59;;;;;;;4.95;3.62;;;25.80;99.90;;;;;;1905726;74;21075;-79
2022/07/14 01:08:30;;;;;;;6.60;5.35;;;25.80;99.90;;;;;;1899120;74;21237;-79
2022/07/14 01:11:01;;;;;;;6.50;5.37;;;25.80;99.90;;;;;;1850378;76;21611;-78
2022/07/14 01:13:32;;;;;;;6.85;5.00;;;25.80;99.90;;;;;;1920387;74;21135;-80
2022/07/14 01:16:05;;;;;;;8.35;4.92;;;25.80;99.90;;;;;;1887960;74;21075;-78
2022/07/14 01:18:36;;;;;;;8.03;6.17;;;25.80;99.90;;;;;;1886934;74;21229;-80
2022/07/14 01:21:09;;;;;;;8.63;6.22;;;25.80;99.90;;;;;;1917936;73;21646;-79
2022/07/14 01:23:41;;;;;;;7.22;6.53;;;25.90;99.90;;;;;;1911029;74;21116;-79
2022/07/14 01:26:12;;;;;;;8.23;7.28;;;25.90;99.90;;;;;;1918859;73;21191;-80
2022/07/14 01:28:50;;;;;;;7.03;6.33;;;25.80;99.90;;;;;;1880000;75;21162;-79
2022/07/14 01:31:42;;;;;;;8.50;7.58;;;25.80;99.90;;;;;;1784796;77;21275;-79
2022/07/14 01:34:13;;;;;;;8.58;7.67;;;25.80;99.90;;;;;;1804199;78;21190;-77
2022/07/14 01:36:47;;;;;;;6.90;5.70;;;25.90;99.90;;;;;;1869490;76;21713;-80
2022/07/14 01:39:17;;;;;;;9.00;6.90;;;25.90;99.90;;;;;;1851042;77;21129;-79
2022/07/14 01:41:49;;;;;;;7.75;5.62;;;25.90;99.90;;;;;;1837175;76;21652;-78
2022/07/14 01:44:20;;;;;;;9.28;7.20;;;26.00;99.90;;;;;;1829972;76;21686;-78
2022/07/14 01:46:51;;;;;;;6.20;5.33;;;26.00;99.90;;;;;;1836011;76;21783;-79
2022/07/14 01:49:23;;;;;;;7.33;5.05;;;26.10;99.90;;;;;;1834493;77;21668;-79
2022/07/14 01:51:54;;;;;;;6.30;4.72;;;26.10;99.90;;;;;;1833361;76;21189;-78
2022/07/14 01:54:25;;;;;;;6.50;4.53;;;26.20;99.90;;;;;;1839566;76;21200;-76
2022/07/14 01:56:56;;;;;;;6.78;4.55;;;26.20;99.90;;;;;;1840026;76;21174;-77
2022/07/14 01:59:27;;;;;;;6.22;4.20;;;26.20;99.90;;;;;;1811261;79;21658;-78
2022/07/14 02:01:59;;;;;;;4.70;4.25;;;26.30;99.90;;;;;;1786658;78;21160;-78
2022/07/14 02:04:30;;;;;;;5.83;4.92;;;26.30;99.90;;;;;;1778379;80;21275;-78
2022/07/14 02:07:01;;;;;;;7.33;6.47;;;26.30;99.90;;;;;;1812951;78;21626;-80
2022/07/14 02:12:11;;;;;;;6.25;5.60;;;26.40;99.90;;;;;;1921479;73;21592;-77
2022/07/14 02:14:37;;;;;;;6.95;6.10;;;26.40;99.90;;;;;;1923519;74;21103;-79
2022/07/14 02:17:08;;;;;;;5.83;5.22;;;26.50;99.90;;;;;;1889543;74;21606;-78
2022/07/14 02:19:40;;;;;;;5.85;4.95;;;26.50;99.90;;;;;;1917970;74;21625;-77
2022/07/14 02:22:11;;;;;;;5.60;4.87;;;26.50;99.90;;;;;;1910824;73;21080;-78
2022/07/14 02:24:42;;;;;;;5.53;4.90;;;26.50;99.90;;;;;;1912961;74;21147;-78
2022/07/14 02:27:13;;;;;;;4.47;3.98;;;26.50;99.90;;;;;;1892074;75;21111;-79
2022/07/14 02:29:44;;;;;;;4.78;3.77;;;26.50;99.90;;;;;;1885737;75;21143;-77
2022/07/14 02:32:15;;;;;;;5.58;3.85;;;26.60;99.90;;;;;;1869643;75;21212;-78
2022/07/14 02:34:46;;;;;;;6.50;3.83;;;26.60;99.90;;;;;;1864484;76;21092;-79
2022/07/14 02:37:17;;;;;;;6.58;4.15;;;26.60;99.90;;;;;;1867717;75;21658;-79
2022/07/14 02:39:48;;;;;;;5.17;4.20;;;26.60;99.90;;;;;;1828399;77;21143;-78
2022/07/14 02:42:19;;;;;;;4.65;4.17;;;26.70;99.90;;;;;;1839701;76;21198;-79
2022/07/14 02:44:50;;;;;;;3.98;3.58;;;26.70;99.90;;;;;;1873035;76;21127;-80
2022/07/14 02:47:21;;;;;;;6.12;4.35;;;26.80;99.90;;;;;;1869363;75;21209;-79
2022/07/14 02:49:52;;;;;;;5.37;4.05;;;26.80;99.90;;;;;;1887109;75;21232;-80
2022/07/14 02:52:24;;;;;;;6.75;4.45;;;26.90;99.90;;;;;;1878189;75;21579;-79
2022/07/14 02:54:55;;;;;;;5.17;3.85;;;27.00;99.90;;;;;;1857871;75;21182;-79
2022/07/14 02:57:26;;;;;;;4.28;3.77;;;27.00;99.90;;;;;;1854473;76;21139;-78
2022/07/14 02:59:57;;;;;;;4.58;4.17;;;27.00;99.90;;;;;;1873061;75;21653;-79
2022/07/14 03:02:28;;;;;;;4.45;3.85;;;27.10;99.90;;;;;;1857756;75;21221;-79
2022/07/14 03:04:59;;;;;;;4.50;3.52;;;27.10;99.90;;;;;;1821645;77;21223;-79
2022/07/14 03:07:31;;;;;;;4.70;3.30;;;27.10;99.90;;;;;;1913479;73;21071;-79
2022/07/14 03:10:02;;;;;;;4.35;3.50;;;27.10;99.90;;;;;;1869939;75;21101;-78
2022/07/14 03:12:33;;;;;;;5.08;3.45;;;27.00;99.90;;;;;;1874651;75;21574;-80
2022/07/14 03:15:07;;;;;;;5.10;3.72;;;27.10;99.90;;;;;;1918296;74;21175;-79
2022/07/14 03:17:41;;;;;;;5.37;3.83;;;27.10;99.90;;;;;;1865150;75;21116;-79
2022/07/14 03:20:10;;;;;;;4.25;3.70;;;27.10;99.90;;;;;;1861279;76;21083;-78
2022/07/14 03:22:42;;;;;;;6.25;4.42;;;27.10;99.90;;;;;;1900630;75;21156;-78
2022/07/14 03:25:13;;;;;;;3.98;3.58;;;27.10;99.90;;;;;;1906594;75;21092;-78
2022/07/14 03:27:46;;;;;;;6.35;4.28;;;27.10;99.90;;;;;;1866932;76;21190;-79
2022/07/14 03:30:17;;;;;;;4.05;3.58;;;27.20;99.90;;;;;;1914941;73;21645;-79
2022/07/14 03:32:48;;;;;;;4.70;3.37;;;27.20;99.90;;;;;;1924113;73;21205;-78
2022/07/14 03:35:19;;;;;;;5.10;3.08;;;27.30;99.90;;;;;;1918496;74;21618;-78
2022/07/14 03:37:50;;;;;;;3.52;3.22;;;27.40;99.90;;;;;;1915257;74;21603;-77
2022/07/14 03:40:23;;;;;;;3.60;2.72;;;27.50;99.90;;;;;;1872568;74;21127;-77
2022/07/14 03:42:54;;;;;;;3.45;2.40;;;27.70;99.90;;;;;;1921706;74;21123;-72
2022/07/14 03:45:25;;;;;;;3.40;1.60;;;27.80;99.90;;;;;;1884070;75;21119;-71
2022/07/14 03:47:56;;;;;;;6.28;1.67;;;28.00;99.90;;;;;;1912837;73;21618;-72
2022/07/14 03:50:27;;;;;;;2.27;1.75;;;28.10;99.90;;;;;;1921935;73;21162;-71
2022/07/14 03:52:58;;;;;;;3.65;1.65;;;28.20;99.90;;;;;;1911951;73;21202;-71
2022/07/14 03:55:29;;;;;;;1.40;1.00;;;28.20;99.90;;;;;;1892938;74;21162;-73
2022/07/14 03:58:00;;;;;;;1.40;1.05;;;28.30;99.90;;;;;;1917396;74;21154;-73
2022/07/14 04:00:32;;;;;;;2.42;1.47;;;28.30;99.90;;;;;;1887409;75;21127;-73
2022/07/14 04:03:02;;;;;;;4.37;1.67;;;28.40;99.90;;;;;;1904078;73;21186;-73
2022/07/14 04:05:33;;;;;;;3.92;1.55;;;28.40;99.90;;;;;;1870670;74;21056;-72
2022/07/14 04:08:05;;;;;;;2.30;1.05;;;28.50;99.90;;;;;;1908638;73;21206;-73
2022/07/14 04:10:36;;;;;;;2.05;1.40;;;28.50;99.90;;;;;;1924170;73;21126;-73
2022/07/14 04:13:07;;;;;;;3.20;1.62;;;28.50;99.90;;;;;;1882842;74;21255;-73
2022/07/14 04:15:39;;;;;;;2.47;1.20;;;28.60;99.90;;;;;;1894730;73;21159;-72
2022/07/14 04:18:10;;;;;;;2.25;1.20;;;28.70;99.90;;;;;;1895115;73;21115;-72
2022/07/14 04:20:42;;;;;;;2.92;1.62;;;28.90;99.90;;;;;;1872361;76;21209;-73
2022/07/14 04:23:13;;;;;;;3.08;1.40;;;29.00;99.90;;;;;;1926677;73;21108;-73
2022/07/14 04:25:44;;;;;;;1.90;1.10;;;29.10;99.90;;;;;;1860159;75;21182;-73
2022/07/14 04:28:17;;;;;;;1.82;1.07;;;29.20;99.90;;;;;;1869756;75;21264;-73
2022/07/14 04:30:48;;;;;;;1.75;1.20;;;29.30;99.90;;;;;;1847497;76;21119;-73
2022/07/14 04:33:21;;;;;;;2.22;1.20;;;29.40;99.90;;;;;;1838662;76;21547;-72
2022/07/14 04:35:52;;;;;;;2.17;0.90;;;29.40;99.90;;;;;;1868200;76;21075;-72
2022/07/14 04:38:25;;;;;;;2.77;0.93;;;29.50;99.90;;;;;;1864514;76;21183;-73
2022/07/14 04:40:55;;;;;;;4.17;1.60;;;29.70;99.90;;;;;;1872662;76;21084;-73
2022/07/14 04:43:26;;;;;;;1.40;1.00;;;29.80;99.90;;;;;;1856293;77;21225;-73
2022/07/14 04:45:57;;;;;;;4.05;1.47;;;29.80;99.90;;;;;;1917904;75;21197;-73
2022/07/14 04:48:28;;;;;;;1.90;1.10;;;29.70;99.90;;;;;;1916594;73;21201;-72
2022/07/14 04:53:31;;;;;;;2.00;1.07;;;29.70;99.90;;;;;;1872926;76;21198;-73
2022/07/14 04:56:02;;;;;;;2.08;0.95;;;29.60;99.90;;;;;;1839634;77;21128;-73
2022/07/14 04:58:33;;;;;;;2.65;1.10;;;29.60;99.90;;;;;;1833069;76;21150;-73
2022/07/14 05:01:04;;;;;;;1.72;1.20;;;30.00;99.90;;;;;;1840950;76;21170;-72
2022/07/14 05:03:36;;;;;;;2.67;1.20;;;30.00;99.90;;;;;;1840553;76;21095;-72
2022/07/14 05:06:07;;;;;;;2.05;1.10;;;29.60;99.90;;;;;;1846264;76;21243;-72
2022/07/14 05:08:38;;;;;;;2.40;1.30;;;30.00;99.90;;;;;;1847900;76;21208;-72
2022/07/14 05:11:09;;;;;;;2.33;1.30;;;29.80;99.90;;;;;;1880052;75;21103;-72
2022/07/14 05:13:40;;;;;;;2.58;1.17;;;29.90;99.90;;;;;;1883111;75;21197;-73
2022/07/14 05:16:11;;;;;;;1.90;1.20;;;30.00;99.90;;;;;;1869033;75;21162;-73
2022/07/14 05:18:42;;;;;;;2.20;1.35;;;30.00;99.90;;;;;;1874414;75;21079;-72
2022/07/14 05:21:13;;;;;;;2.30;1.60;;;30.10;99.90;;;;;;1873822;76;21273;-71
2022/07/14 05:23:44;;;;;;;2.62;1.50;;;29.60;99.90;;;;;;1883531;75;21225;-72
2022/07/14 05:26:17;;;;;;;5.40;1.50;;;29.50;99.90;;;;;;1872326;76;21158;-72
2022/07/14 05:28:47;;;;;;;4.25;1.98;;;29.50;99.90;;;;;;1898048;74;21458;-72
2022/07/14 05:31:38;;;;;;;4.62;2.30;;;29.50;99.90;;;;;;1914867;74;21128;-73
2022/07/14 05:34:10;;;;;;;7.97;4.17;;;29.40;99.90;;;;;;1896575;74;21612;-73
2022/07/14 05:36:41;;;;;;;4.85;2.50;;;29.30;99.90;;;;;;1897621;74;21605;-72
2022/07/14 05:39:15;;;;;;;3.80;2.60;;;29.00;99.90;;;;;;1886364;74;21639;-72
2022/07/14 05:41:46;;;;;;;3.83;2.40;;;29.00;99.90;;;;;;1840731;77;21246;-72
2022/07/14 05:44:17;;;;;;;5.72;2.62;;;28.90;99.90;;;;;;1857402;75;21131;-72
2022/07/14 05:46:48;;;;;;;7.60;2.98;;;28.70;99.90;;;;;;1837372;77;21164;-73
2022/07/14 05:49:20;;;;;;;6.40;3.58;;;28.80;99.90;;;;;;1844537;77;21290;-73
2022/07/14 05:51:52;;;;;;;7.62;4.22;;;28.50;99.90;;;;;;1876482;76;21695;-72
2022/07/14 05:54:23;;;;;;;6.72;3.50;;;28.40;99.90;;;;;;1857436;76;21832;-74
2022/07/14 05:56:54;;;;;;;8.25;3.47;;;28.50;99.90;;;;;;1888430;74;21610;-72
2022/07/14 05:59:25;;;;;;;3.37;2.30;;;28.30;99.90;;;;;;1829916;78;22516;-72
2022/07/14 06:01:57;;;;;;;5.17;3.25;;;28.20;99.90;;;;;;1860551;76;21140;-73
2022/07/14 06:04:28;;;;;;;5.72;2.33;;;28.20;99.90;;;;;;1831745;76;21143;-73
2022/07/14 06:06:59;;;;;;;4.85;2.70;;;28.20;99.90;;;;;;1874253;75;21163;-72
2022/07/14 06:09:31;;;;;;;4.58;2.58;;;28.10;99.90;;;;;;1873068;75;21142;-71
2022/07/14 06:12:02;;;;;;;4.30;2.02;;;28.00;99.90;;;;;;1889613;75;21193;-72
2022/07/14 06:14:34;;;;;;;3.02;2.00;;;28.30;99.90;;;;;;1859396;76;21210;-72
2022/07/14 06:17:04;;;;;;;4.83;2.50;;;28.30;99.90;;;;;;1889811;75;21186;-72
2022/07/14 06:19:36;;;;;;;3.80;2.02;;;28.10;99.90;;;;;;1909628;72;21638;-72
2022/07/14 06:22:08;;;;;;;3.58;2.27;;;28.20;99.90;;;;;;1883794;74;21607;-72
2022/07/14 06:24:41;;;;;;;2.52;1.90;;;28.10;99.90;;;;;;1925433;73;21615;-72
2022/07/14 06:27:12;;;;;;;2.37;1.80;;;;;;;;;;1908147;73;21152;-72
2022/07/14 06:29:44;;;;;;;3.40;2.02;;;28.50;99.90;;;;;;1929121;73;21415;-72
2022/07/14 06:32:15;;;;;;;6.22;2.02;;;28.30;99.90;;;;;;1921506;73;21167;-73
2022/07/14 06:34:45;;;;;;;3.00;1.65;;;28.30;99.90;;;;;;1892184;75;21156;-72
2022/07/14 06:37:16;;;;;;;6.72;2.80;;;28.50;99.90;;;;;;1916017;73;21167;-72
2022/07/14 06:39:48;;;;;;;3.50;2.10;;;28.40;99.90;;;;;;1925260;73;21721;-72
2022/07/14 06:42:19;;;;;;;5.00;2.50;;;28.40;99.90;;;;;;1927273;73;21670;-72
2022/07/14 06:44:50;;;;;;;4.10;2.30;;;28.50;99.90;;;;;;1893169;75;21138;-71
2022/07/14 06:47:21;;;;;;;3.85;2.12;;;28.90;99.90;;;;;;1916424;73;21777;-73
2022/07/14 06:49:54;;;;;;;4.37;2.77;;;28.80;99.90;;;;;;1936023;73;21671;-73
2022/07/14 06:52:25;;;;;;;2.70;1.90;;;28.90;99.90;;;;;;1885845;75;21619;-72
2022/07/14 06:54:57;;;;;;;2.85;2.05;;;28.90;99.90;;;;;;1912320;73;21691;-72
2022/07/14 06:57:29;;;;;;;4.22;2.37;;;28.60;99.90;;;;;;1861180;75;21129;-72
2022/07/14 07:00:00;;;;;;;13.03;4.97;;;28.90;99.90;;;;;;1876251;75;21592;-72
2022/07/14 07:02:31;;;;;;;5.67;2.90;;;28.60;99.90;;;;;;1870857;75;21199;-72
2022/07/14 07:07:36;;;;;;;5.05;3.05;;;28.50;99.90;;;;;;1926344;73;21103;-72
2022/07/14 07:10:08;;;;;;;4.83;2.85;;;28.50;99.90;;;;;;1927792;73;21179;-72
2022/07/14 07:12:38;;;;;;;3.92;2.25;;;28.90;99.90;;;;;;1907179;73;21104;-72
2022/07/14 07:15:10;;;;;;;3.25;2.17;;;28.90;99.90;;;;;;1934246;73;21166;-73
2022/07/14 07:17:41;;;;;;;2.17;1.72;;;28.70;99.90;;;;;;1927223;73;21270;-73
2022/07/14 07:20:12;;;;;;;2.60;1.70;;;28.70;99.90;;;;;;1887451;75;21175;-72
2022/07/14 07:22:43;;;;;;;3.52;1.90;;;28.60;99.90;;;;;;1867771;75;21073;-72
2022/07/14 07:25:18;;;;;;;5.22;2.60;;;28.90;99.90;;;;;;1859707;75;21144;-73
2022/07/14 07:27:49;;;;;;;4.40;2.30;;;28.80;99.90;;;;;;1855389;77;21169;-73
2022/07/14 07:30:20;;;;;;;3.50;1.80;;;28.80;99.90;;;;;;1926422;73;21136;-72
2022/07/14 07:32:52;;;;;;;3.77;1.87;;;28.90;99.90;;;;;;1905685;75;21218;-74
2022/07/14 07:35:26;;;;;;;3.98;2.92;;;28.90;99.90;;;;;;1922883;73;21677;-73
2022/07/14 07:37:57;;;;;;;3.42;2.25;;;28.80;99.90;;;;;;1928129;73;21194;-73
2022/07/14 07:40:28;;;;;;;4.58;1.87;;;28.90;99.90;;;;;;1893498;75;21164;-74
2022/07/14 07:42:59;;;;;;;3.10;1.92;;;29.00;99.90;;;;;;1925291;73;21069;-73
2022/07/14 07:45:30;;;;;;;3.17;2.30;;;29.10;99.90;;;;;;1937964;73;21127;-73
2022/07/14 07:48:03;;;;;;;3.15;2.27;;;28.90;99.90;;;;;;1917511;73;21729;-73
2022/07/14 07:50:35;;;;;;;4.08;1.62;;;29.00;99.90;;;;;;1920350;73;21725;-73
2022/07/14 07:53:07;;;;;;;2.75;1.50;;;29.10;99.90;;;;;;1913416;73;21179;-73
2022/07/14 07:55:54;;;;;;;2.35;1.22;;;28.90;99.90;;;;;;1921212;74;21095;-73
2022/07/14 07:58:24;;;;;;;2.62;1.00;;;29.20;99.90;;;;;;1921702;73;21602;-73
2022/07/14 08:00:55;;;;;;;2.90;1.25;;;29.00;99.90;;;;;;1918268;73;21190;-73
2022/07/14 08:03:26;;;;;;;4.05;2.20;;;29.10;99.90;;;;;;1928130;73;21103;-72
2022/07/14 08:05:57;;;;;;;4.47;2.42;;;29.00;99.90;;;;;;1917167;73;21112;-72
2022/07/14 08:08:29;;;;;;;5.67;2.92;;;29.10;99.90;;;;;;1933408;73;21195;-72
2022/07/14 08:11:00;;;;;;;4.42;2.75;;;29.30;99.90;;;;;;1893113;75;22193;-72
2022/07/14 08:13:31;;;;;;;2.52;1.42;;;29.10;99.90;;;;;;1920205;73;21136;-71
2022/07/14 08:16:02;;;;;;;8.43;3.95;;;29.20;99.90;;;;;;1931061;73;21124;-72
2022/07/14 08:18:33;;;;;;;3.42;1.40;;;29.50;99.90;;;;;;1923410;73;21160;-71
2022/07/14 08:21:04;;;;;;;1.82;0.95;;;29.30;99.90;;;;;;1927545;73;21197;-72
2022/07/14 08:23:35;;;;;;;2.12;1.42;;;29.30;99.90;;;;;;1941567;73;21132;-74
2022/07/14 08:26:06;;;;;;;2.95;1.30;;;29.30;99.90;;;;;;1937959;73;21200;-73
2022/07/14 08:28:37;;;;;;;2.40;1.10;;;29.50;99.90;;;;;;1925314;73;21684;-73
2022/07/14 08:31:08;;;;;;;3.85;1.60;;;29.30;99.90;;;;;;1927938;73;21137;-73
2022/07/14 08:33:40;;;;;;;3.37;1.80;;;29.20;99.90;;;;;;1923396;73;21648;-73
2022/07/14 08:36:11;;;;;;;1.62;0.98;;;29.10;99.90;;;;;;1925450;73;21222;-73
2022/07/14 08:38:43;;;;;;;5.25;1.32;;;29.10;99.90;;;;;;1909019;73;21105;-73
2022/07/14 08:41:15;;;;;;;2.67;0.95;;;29.00;99.90;;;;;;1929410;73;21578;-72
2022/07/14 08:43:48;;;;;;;1.12;0.70;;;29.00;99.90;;;;;;1908150;73;21656;-72
2022/07/14 08:46:19;;;;;;;2.25;1.10;;;29.20;99.90;;;;;;1944064;73;21276;-73
2022/07/14 08:48:53;;;;;;;2.42;1.32;;;29.30;99.90;;;;;;1923320;73;21123;-72
2022/07/14 08:51:25;;;;;;;2.10;1.02;;;29.30;99.90;;;;;;1916654;73;21624;-72
2022/07/14 08:53:57;;;;;;;2.05;1.10;;;29.20;99.90;;;;;;1918101;73;21142;-73
2022/07/14 08:56:29;;;;;;;1.62;0.90;;;29.10;99.90;;;;;;1926249;73;21135;-73
2022/07/14 08:59:00;;;;;;;1.57;0.98;;;29.10;99.90;;;;;;1925494;73;22498;-73
2022/07/14 09:01:31;;;;;;;2.75;1.10;;;29.30;99.90;;;;;;1921859;74;21174;-73
2022/07/14 09:04:03;;;;;;;4.12;2.58;;;29.20;99.90;;;;;;1917134;74;21097;-72
2022/07/14 09:06:37;;;;;;;1.80;1.35;;;29.10;99.90;;;;;;1922157;74;21178;-72
2022/07/14 09:09:09;;;;;;;1.47;1.02;;;;;;;;;;1922427;74;21188;-72
2022/07/14 09:11:46;;;;;;;4.70;2.10;;;;;;;;;;1922247;74;21135;-73
2022/07/14 09:14:23;;;;;;;3.72;1.22;;;;;;;;;;1879944;74;21149;-73
2022/07/14 09:16:55;;;;;;;2.75;1.07;;;;;;;;;;1858961;75;21646;-72
2022/07/14 09:19:27;;;;;;;2.35;1.22;;;;;;;;;;1852881;76;21201;-73
2022/07/14 09:22:01;;;;;;;5.92;2.67;;;;;;;;;;1829323;76;21116;-73
2022/07/14 09:24:31;;;;;;;5.92;2.98;;;;;;;;;;1914992;74;21651;-72
2022/07/14 09:27:03;;;;;;;2.75;0.98;;;29.20;99.90;;;;;;1899130;74;21146;-72
2022/07/14 09:29:36;;;;;;;2.17;1.20;;;29.20;99.90;;;;;;1937890;73;21249;-72
2022/07/14 09:32:07;;;;;;;1.98;1.17;;;29.40;99.90;;;;;;1860214;77;21986;-72
2022/07/14 09:34:38;;;;;;;1.87;1.17;;;29.40;99.90;;;;;;1920635;73;21161;-72
2022/07/14 09:37:13;;;;;;;1.52;1.00;;;29.10;99.90;;;;;;1886130;76;21216;-72
2022/07/14 09:39:47;;;;;;;2.05;1.10;;;29.20;99.90;;;;;;1932223;73;21197;-72
2022/07/14 09:42:17;;;;;;;3.65;1.70;;;29.40;99.90;;;;;;1883859;75;21152;-72
2022/07/14 09:44:48;;;;;;;2.42;1.65;;;29.10;99.90;;;;;;1903397;75;21120;-73
2022/07/14 09:47:19;;;;;;;5.00;2.92;;;;;;;;;;1917958;73;21242;-72
2022/07/14 09:49:49;;;;;;;4.28;3.47;;;;;;;;;;1918724;73;21783;-72
2022/07/14 09:52:23;;;;;;;5.03;2.05;;;;;;;;;;1892103;75;21631;-72
2022/07/14 09:54:53;;;;;;;4.78;2.00;;;29.10;99.90;;;;;;1934310;73;21109;-72
2022/07/14 09:57:26;;;;;;;6.10;1.90;;;29.20;99.90;;;;;;1918759;73;21144;-73
2022/07/14 10:00:00;;;;;;;8.55;4.87;;;29.00;99.90;;;;;;1927356;73;21159;-72
2022/07/14 10:02:32;;;;;;;6.37;3.27;;;29.10;99.90;;;;;;1923782;73;21116;-72
2022/07/14 10:05:07;;;;;;;6.90;3.25;;;28.70;99.90;;;;;;1923417;73;21104;-73
2022/07/14 10:07:41;;;;;;;5.45;1.80;;;28.60;99.90;;;;;;1884197;75;21253;-73
2022/07/14 10:10:16;;;;;;;11.20;4.03;;;28.80;99.90;;;;;;1924022;74;21139;-72
2022/07/14 10:12:48;;;;;;;6.62;3.80;;;28.80;99.90;;;;;;1924517;74;22121;-73
2022/07/14 10:15:19;;;;;;;2.80;1.42;;;28.50;99.90;;;;;;1885782;75;21238;-73
2022/07/14 10:17:51;;;;;;;2.52;1.42;;;28.50;99.90;;;;;;1917458;74;21067;-73
2022/07/14 10:20:23;;;;;;;5.47;2.37;;;28.60;99.90;;;;;;1921477;73;21144;-72
2022/07/14 10:22:56;;;;;;;6.10;1.67;;;28.70;99.90;;;;;;1925887;73;21187;-73
2022/07/14 10:25:27;;;;;;;3.37;1.35;;;28.80;99.90;;;;;;1921409;73;21675;-72
2022/07/14 10:27:59;;;;;;;4.10;1.40;;;28.60;99.90;;;;;;1919046;73;21580;-74
2022/07/14 10:30:31;;;;;;;4.60;1.40;;;;;;;;;;1920863;73;21140;-72
2022/07/14 10:33:03;;;;;;;2.75;1.20;;;;;;;;;;1917961;73;21162;-72
2022/07/14 10:35:35;;;;;;;4.05;1.80;;;;;;;;;;1923224;73;21156;-73
2022/07/14 10:38:07;;;;;;;3.02;1.25;;;;;;;;;;1921632;73;21100;-71
2022/07/14 10:40:39;;;;;;;6.65;1.70;;;;;;;;;;1921200;73;21672;-72
2022/07/14 10:43:11;;;;;;;5.47;1.70;;;;;;;;;;1923895;73;21083;-72
2022/07/14 10:45:44;;;;;;;4.03;1.42;;;;;;;;;;1923972;73;21148;-72
2022/07/14 10:48:16;;;;;;;5.17;1.62;;;;;;;;;;1912962;73;21662;-72
2022/07/14 10:50:46;;;;;;;4.70;1.70;;;;;;;;;;1919690;73;21183;-72
2022/07/14 10:53:17;;;;;;;5.20;1.87;;;;;;;;;;1921407;73;21614;-72
2022/07/14 10:55:48;;;;;;;2.70;1.90;;;;;;;;;;1920568;73;21160;-72
2022/07/14 10:58:19;;;;;;;8.18;5.15;;;;;;;;;;1896161;75;21137;-72
2022/07/14 11:00:55;;;;;;;6.83;3.55;;;;;;;;;;1892557;75;21111;-72
2022/07/14 11:03:25;;;;;;;7.58;3.22;;;;;;;;;;1855652;76;21171;-71
2022/07/14 11:05:57;;;;;;;5.42;3.15;;;;;;;;;;1851255;76;21128;-72
2022/07/14 11:08:29;;;;;;;5.85;3.70;;;;;;;;;;1880676;75;21635;-71
2022/07/14 11:11:02;;;;;;;4.28;2.87;;;;;;;;;;1872889;76;21135;-72
2022/07/14 11:13:33;;;;;;;7.53;3.50;;;;;;;;;;1882526;74;21150;-72
2022/07/14 11:16:05;;;;;;;4.95;4.00;;;;;;;;;;1928566;73;21144;-72
2022/07/14 11:18:41;;;;;;;7.65;6.28;;;;;;;;;;1921780;73;21642;-72
2022/07/14 11:21:11;;;;;;;11.35;10.15;;;;;;;;;;1849253;76;21167;-71
2022/07/14 11:23:46;;;;;;;14.00;11.53;;;;;;;;;;1913056;73;21252;-72
2022/07/14 11:26:19;;;;;;;11.93;10.00;;;;;;;;;;1900238;73;21261;-71
2022/07/14 11:28:51;;;;;;;9.55;8.55;;;;;;;;;;1918325;74;21156;-72
2022/07/14 11:31:23;;;;;;;8.95;7.40;;;;;;;;;;1869303;76;21161;-72
2022/07/14 11:36:29;;;;;;;8.85;7.95;;;;;;;;;;1920225;74;21128;-72
2022/07/14 11:39:05;;;;;;;11.12;9.20;;;;;;;;;;1911738;73;21576;-71
2022/07/14 11:41:37;;;;;;;9.63;8.48;;;;;;;;;;1921160;73;21179;-72
2022/07/14 11:44:10;;;;;;;9.43;8.53;;;;;;;;;;1920961;74;21200;-72
2022/07/14 11:46:44;;;;;;;11.20;9.80;;;;;;;;;;1913952;73;21158;-73
2022/07/14 11:49:16;;;;;;;9.88;8.58;;;;;;;;;;1937044;73;21754;-72
2022/07/14 11:51:48;;;;;;;12.50;8.18;;;;;;;;;;1917040;73;21134;-72
2022/07/14 11:54:21;;;;;;;8.63;7.83;;;;;;;;;;1896420;74;21420;-72
2022/07/14 11:56:53;;;;;;;8.58;7.40;;;;;;;;;;1913966;73;21182;-70
2022/07/14 11:59:25;;;;;;;8.60;7.35;;;;;;;;;;1919472;73;21153;-73
2022/07/14 12:01:57;;;;;;;8.18;6.12;;;;;;;;;;1922564;73;21192;-74
2022/07/14 12:04:29;;;;;;;7.42;5.55;;;;;;;;;;1922026;73;21125;-72
2022/07/14 12:07:01;;;;;;;6.85;4.50;;;;;;;;;;1934800;73;21222;-72
2022/07/14 12:09:35;;;;;;;6.62;4.53;;;;;;;;;;1919437;74;21123;-72
2022/07/14 12:12:07;;;;;;;5.45;4.28;;;;;;;;;;1845552;76;21162;-73
2022/07/14 12:14:40;;;;;;;6.58;4.72;;;;;;;;;;1925794;73;21543;-70
2022/07/14 12:17:11;;;;;;;5.20;4.10;;;;;;;;;;1921608;73;21123;-72
2022/07/14 12:19:43;;;;;;;4.92;2.70;;;;;;;;;;1940371;73;21464;-72
2022/07/14 12:22:18;;;;;;;10.00;3.20;;;;;;;;;;1922511;73;21488;-81
2022/07/14 12:24:49;;;;;;;5.58;3.15;;;;;;;;;;1895129;75;21181;-81
2022/07/14 12:27:24;;;;;;;4.40;2.65;;;;;;;;;;1839799;76;21147;-80
2022/07/14 12:29:56;;;;;;;4.50;2.83;;;;;;;;;;1850673;75;21111;-80
2022/07/14 12:32:27;;;;;;;4.78;3.15;;;;;;;;;;1849658;77;21117;-81
2022/07/14 12:34:59;;;;;;;5.17;2.50;;;;;;;;;;1881995;74;21153;-80
2022/07/14 12:37:35;;;;;;;4.55;2.50;;;;;;;;;;1830745;76;21281;-80
2022/07/14 12:40:08;;;;;;;6.95;2.37;;;;;;;;;;1837432;78;21554;-80
2022/07/14 12:42:39;;;;;;;4.12;2.30;;;;;;;;;;1849324;76;21234;-81
2022/07/14 12:45:13;;;;;;;3.83;2.05;;;;;;;;;;1828791;77;21172;-80
2022/07/14 12:47:45;;;;;;;5.62;2.05;;;;;;;;;;1826413;77;21124;-82
2022/07/14 12:50:18;;;;;;;5.03;2.10;;;;;;;;;;1832726;78;21137;-80
2022/07/14 12:52:52;;;;;;;6.17;2.45;;;;;;;;;;1866901;76;21126;-79
2022/07/14 12:55:25;;;;;;;3.90;1.90;;;;;;;;;;1800382;78;21090;-80
2022/07/14 12:58:02;;;;;;;3.45;1.92;;;;;;;;;;1834058;77;21135;-81
2022/07/14 13:00:35;;;;;;;8.85;1.92;;;;;;;;;;1824793;78;21242;-81
2022/07/14 13:03:13;;;;;;;4.67;1.77;;;;;;;;;;1840456;76;21240;-81
2022/07/14 13:05:46;;;;;;;4.08;1.90;;;;;;;;;;1850905;77;21187;-80
2022/07/14 13:08:19;;;;;;;5.40;2.30;;;;;;;;;;1849314;77;21209;-79
2022/07/14 13:10:52;;;;;;;4.92;1.92;;;;;;;;;;1872282;76;21249;-79
2022/07/14 13:13:31;;;;;;;5.42;2.35;;;;;;;;;;1873061;76;21777;-79
2022/07/14 13:15:59;;;;;;;6.00;2.70;;;;;;;;;;1852442;76;21183;-81
2022/07/14 13:18:31;;;;;;;7.33;2.90;;;;;;;;;;1850109;77;21228;-81
2022/07/14 13:21:03;;;;;;;8.33;3.00;;;;;;;;;;1837201;77;21187;-79
2022/07/14 13:23:40;;;;;;;8.73;3.00;;;;;;;;;;1796144;77;21169;-81
2022/07/14 13:26:10;;;;;;;6.58;2.65;;;;;;;;;;1846424;76;21069;-81
2022/07/14 13:28:44;;;;;;;8.53;3.02;;;;;;;;;;1857828;76;21141;-80
2022/07/14 13:31:17;;;;;;;10.18;3.08;;;;;;;;;;1862122;76;21134;-80
2022/07/14 13:33:50;;;;;;;5.60;2.25;;;;;;;;;;1832335;77;21125;-79
2022/07/14 13:36:21;;;;;;;6.75;2.70;;;;;;;;;;1850654;76;21180;-79
2022/07/14 13:38:52;;;;;;;5.42;2.52;;;;;;;;;;1837951;76;21199;-79
2022/07/14 13:41:23;;;;;;;5.95;2.45;;;;;;;;;;1879865;75;21156;-79
2022/07/14 13:43:58;;;;;;;4.78;2.30;;;;;;;;;;1861003;76;21713;-81
2022/07/14 13:46:26;;;;;;;5.17;2.55;;;;;;;;;;1917087;73;21734;-79
2022/07/14 13:48:58;;;;;;;5.83;2.40;;;;;;;;;;1924508;74;21128;-80